sensor_id;sensor_type;location;lat;lon;timestamp;temperature;humidity
11656;DHT22;5884;43.618;1.438;2024-01-30T05:45:29;9.20;99.90
11656;DHT22;5884;43.618;1.438;2024-01-30T05:47:56;9.20;99.90
11656;DHT22;5884;43.618;1.438;2024-01-30T05:50:24;9.10;99.90
11656;DHT22;5884;43.618;1.438;2024-01-30T05:52:52;9.10;99.90
11656;DHT22;5884;43.618;1.438;2024-01-30T05:55:19;9.00;99.90
11656;DHT22;5884;43.618;1.438;2024-01-30T05:57:46;8.90;99.90
11656;DHT22;5884;43.618;1.438;2024-01-30T06:00:14;8.90;99.90
11656;DHT22;5884;43.618;1.438;2024-01-30T06:02:43;8.80;99.90
11656;DHT22;5884;43.618;1.438;2024-01-30T06:05:10;8.80;99.90
11656;DHT22;5884;43.618;1.438;2024-01-30T06:07:38;8.80;99.90
11656;DHT22;5884;43.618;1.438;2024-01-30T06:10:05;8.80;99.90
11656;DHT22;5884;43.618;1.438;2024-01-30T06:12:34;8.80;99.90
11656;DHT22;5884;43.618;1.438;2024-01-30T06:15:01;8.80;99.90
11656;DHT22;5884;43.618;1.438;2024-01-30T06:17:28;8.80;99.90
11656;DHT22;5884;43.618;1.438;2024-01-30T06:19:57;8.80;99.90
11656;DHT22;5884;43.618;1.438;2024-01-30T06:22:25;8.70;99.90
11656;DHT22;5884;43.618;1.438;2024-01-30T06:24:52;8.70;99.90
11656;DHT22;5884;43.618;1.438;2024-01-30T06:27:19;8.70;99.90
11656;DHT22;5884;43.618;1.438;2024-01-30T06:29:46;8.70;99.90
11656;DHT22;5884;43.618;1.438;2024-01-30T06:32:13;8.70;99.90
11656;DHT22;5884;43.618;1.438;2024-01-30T06:34:41;8.70;99.90
11656;DHT22;5884;43.618;1.438;2024-01-30T06:37:11;8.70;99.90
11656;DHT22;5884;43.618;1.438;2024-01-30T06:39:38;8.70;99.90
11656;DHT22;5884;43.618;1.438;2024-01-30T06:42:05;8.70;99.90
11656;DHT22;5884;43.618;1.438;2024-01-30T06:44:32;8.70;99.90
11656;DHT22;5884;43.618;1.438;2024-01-30T06:47:00;8.70;99.90
11656;DHT22;5884;43.618;1.438;2024-01-30T06:49:27;8.60;99.90
11656;DHT22;5884;43.618;1.438;2024-01-30T06:51:54;8.70;99.90
11656;DHT22;5884;43.618;1.438;2024-01-30T06:54:23;8.60;99.90
11656;DHT22;5884;43.618;1.438;2024-01-30T06:56:50;8.60;99.90
11656;DHT22;5884;43.618;1.438;2024-01-30T06:59:17;8.70;99.90
11656;DHT22;5884;43.618;1.438;2024-01-30T07:01:44;8.70;99.90
11656;DHT22;5884;43.618;1.438;2024-01-30T07:04:11;8.70;99.90
11656;DHT22;5884;43.618;1.438;2024-01-30T07:06:38;8.60;99.90
11656;DHT22;5884;43.618;1.438;2024-01-30T07:09:05;8.60;99.90
11656;DHT22;5884;43.618;1.438;2024-01-30T07:11:35;8.50;99.90
11656;DHT22;5884;43.618;1.438;2024-01-30T07:14:02;8.60;99.90
11656;DHT22;5884;43.618;1.438;2024-01-30T07:16:30;8.50;99.90
11656;DHT22;5884;43.618;1.438;2024-01-30T07:18:57;8.50;99.90
11656;DHT22;5884;43.618;1.438;2024-01-30T07:21:24;8.40;99.90
11656;DHT22;5884;43.618;1.438;2024-01-30T07:23:53;8.40;99.90
11656;DHT22;5884;43.618;1.438;2024-01-30T07:26:21;8.40;99.90
11656;DHT22;5884;43.618;1.438;2024-01-30T07:28:49;8.40;99.90
11656;DHT22;5884;43.618;1.438;2024-01-30T07:31:16;8.40;99.90
11656;DHT22;5884;43.618;1.438;2024-01-30T07:33:46;8.50;99.90
11656;DHT22;5884;43.618;1.438;2024-01-30T07:36:13;8.50;99.90
11656;DHT22;5884;43.618;1.438;2024-01-30T07:38:40;8.50;99.90
11656;DHT22;5884;43.618;1.438;2024-01-30T07:41:07;8.60;99.90
11656;DHT22;5884;43.618;1.438;2024-01-30T07:43:34;8.60;99.90
11656;DHT22;5884;43.618;1.438;2024-01-30T07:46:03;8.60;99.90
11656;DHT22;5884;43.618;1.438;2024-01-30T07:48:32;8.70;99.90
11656;DHT22;5884;43.618;1.438;2024-01-30T07:51:00;8.80;99.90
11656;DHT22;5884;43.618;1.438;2024-01-30T07:53:29;8.90;99.90
11656;DHT22;5884;43.618;1.438;2024-01-30T07:55:56;9.10;99.90
11656;DHT22;5884;43.618;1.438;2024-01-30T07:58:24;9.10;99.90
11656;DHT22;5884;43.618;1.438;2024-01-30T08:00:52;9.20;99.90
11656;DHT22;5884;43.618;1.438;2024-01-30T08:03:23;9.20;99.90
11656;DHT22;5884;43.618;1.438;2024-01-30T08:05:50;9.20;99.90
11656;DHT22;5884;43.618;1.438;2024-01-30T08:08:18;9.30;99.90
11656;DHT22;5884;43.618;1.438;2024-01-30T08:10:45;9.50;99.90
11656;DHT22;5884;43.618;1.438;2024-01-30T08:13:12;9.50;99.90
11656;DHT22;5884;43.618;1.438;2024-01-30T08:15:39;9.50;99.90
11656;DHT22;5884;43.618;1.438;2024-01-30T08:18:06;9.60;99.90
11656;DHT22;5884;43.618;1.438;2024-01-30T08:20:35;9.70;99.90
11656;DHT22;5884;43.618;1.438;2024-01-30T08:23:02;10.20;99.90
11656;DHT22;5884;43.618;1.438;2024-01-30T08:25:29;10.50;99.90
11656;DHT22;5884;43.618;1.438;2024-01-30T08:27:57;10.70;99.90
11656;DHT22;5884;43.618;1.438;2024-01-30T08:30:24;10.80;99.90
11656;DHT22;5884;43.618;1.438;2024-01-30T08:32:51;11.00;99.90
11656;DHT22;5884;43.618;1.438;2024-01-30T08:35:18;11.10;99.90
11656;DHT22;5884;43.618;1.438;2024-01-30T08:37:47;11.20;99.90
11656;DHT22;5884;43.618;1.438;2024-01-30T08:40:14;11.30;99.90
11656;DHT22;5884;43.618;1.438;2024-01-30T08:42:41;11.40;99.90
11656;DHT22;5884;43.618;1.438;2024-01-30T08:45:09;11.50;99.90
11656;DHT22;5884;43.618;1.438;2024-01-30T08:47:36;11.60;99.90
11656;DHT22;5884;43.618;1.438;2024-01-30T08:50:05;11.70;99.90
11656;DHT22;5884;43.618;1.438;2024-01-30T08:52:32;11.80;99.90
11656;DHT22;5884;43.618;1.438;2024-01-30T08:55:01;11.80;99.90
11656;DHT22;5884;43.618;1.438;2024-01-30T08:57:30;12.00;99.90
11656;DHT22;5884;43.618;1.438;2024-01-30T08:59:57;12.10;99.90
11656;DHT22;5884;43.618;1.438;2024-01-30T09:02:24;12.30;99.90
11656;DHT22;5884;43.618;1.438;2024-01-30T09:04:51;12.40;99.90
11656;DHT22;5884;43.618;1.438;2024-01-30T09:07:18;12.50;99.90
11656;DHT22;5884;43.618;1.438;2024-01-30T09:09:45;12.60;99.90
11656;DHT22;5884;43.618;1.438;2024-01-30T09:12:14;12.70;99.90
11656;DHT22;5884;43.618;1.438;2024-01-30T09:14:41;12.60;99.90
11656;DHT22;5884;43.618;1.438;2024-01-30T09:17:08;12.60;99.90
11656;DHT22;5884;43.618;1.438;2024-01-30T09:19:36;12.60;99.90
11656;DHT22;5884;43.618;1.438;2024-01-30T09:22:03;12.50;99.90
11656;DHT22;5884;43.618;1.438;2024-01-30T09:24:31;12.50;99.90
11656;DHT22;5884;43.618;1.438;2024-01-30T09:26:58;12.60;99.90
11656;DHT22;5884;43.618;1.438;2024-01-30T09:29:26;12.60;99.90
11656;DHT22;5884;43.618;1.438;2024-01-30T09:31:54;12.70;99.90
11656;DHT22;5884;43.618;1.438;2024-01-30T09:34:21;12.60;99.90
11656;DHT22;5884;43.618;1.438;2024-01-30T09:36:48;12.60;99.90
11656;DHT22;5884;43.618;1.438;2024-01-30T09:39:15;12.70;99.90
11656;DHT22;5884;43.618;1.438;2024-01-30T09:41:48;12.70;99.90
11656;DHT22;5884;43.618;1.438;2024-01-30T09:44:16;12.70;99.90
11656;DHT22;5884;43.618;1.438;2024-01-30T09:46:47;12.80;99.90
11656;DHT22;5884;43.618;1.438;2024-01-30T09:49:14;12.80;99.90
11656;DHT22;5884;43.618;1.438;2024-01-30T09:51:44;12.90;99.90
11656;DHT22;5884;43.618;1.438;2024-01-30T09:54:14;12.90;99.90
11656;DHT22;5884;43.618;1.438;2024-01-30T09:56:41;13.00;99.90
11656;DHT22;5884;43.618;1.438;2024-01-30T09:59:08;13.00;99.90
11656;DHT22;5884;43.618;1.438;2024-01-30T10:01:36;13.00;99.90
11656;DHT22;5884;43.618;1.438;2024-01-30T10:04:06;13.00;99.90
11656;DHT22;5884;43.618;1.438;2024-01-30T10:06:34;13.10;99.90
11656;DHT22;5884;43.618;1.438;2024-01-30T10:09:01;13.10;99.90
11656;DHT22;5884;43.618;1.438;2024-01-30T10:11:28;13.10;99.90
11656;DHT22;5884;43.618;1.438;2024-01-30T10:13:56;13.20;99.90
11656;DHT22;5884;43.618;1.438;2024-01-30T10:16:23;13.20;99.90
11656;DHT22;5884;43.618;1.438;2024-01-30T10:18:50;13.20;99.90
11656;DHT22;5884;43.618;1.438;2024-01-30T10:21:18;13.20;99.90
11656;DHT22;5884;43.618;1.438;2024-01-30T10:23:46;13.20;99.90
11656;DHT22;5884;43.618;1.438;2024-01-30T10:26:13;13.30;99.90
11656;DHT22;5884;43.618;1.438;2024-01-30T10:28:40;13.30;99.90
11656;DHT22;5884;43.618;1.438;2024-01-30T10:31:07;13.50;99.90
11656;DHT22;5884;43.618;1.438;2024-01-30T10:33:34;13.50;99.90
11656;DHT22;5884;43.618;1.438;2024-01-30T10:36:03;13.60;99.90
11656;DHT22;5884;43.618;1.438;2024-01-30T10:38:33;13.60;99.90
11656;DHT22;5884;43.618;1.438;2024-01-30T10:41:00;13.50;99.90
11656;DHT22;5884;43.618;1.438;2024-01-30T10:43:31;13.60;99.90
11656;DHT22;5884;43.618;1.438;2024-01-30T10:46:06;13.60;99.90
11656;DHT22;5884;43.618;1.438;2024-01-30T10:48:42;13.70;99.90
11656;DHT22;5884;43.618;1.438;2024-01-30T10:51:11;13.70;99.90
11656;DHT22;5884;43.618;1.438;2024-01-30T10:53:41;13.70;99.90
11656;DHT22;5884;43.618;1.438;2024-01-30T10:56:12;13.80;99.90
11656;DHT22;5884;43.618;1.438;2024-01-30T10:58:39;13.90;99.90
11656;DHT22;5884;43.618;1.438;2024-01-30T11:01:07;13.90;99.90
11656;DHT22;5884;43.618;1.438;2024-01-30T11:03:35;14.00;99.90
11656;DHT22;5884;43.618;1.438;2024-01-30T11:06:03;14.10;99.90
11656;DHT22;5884;43.618;1.438;2024-01-30T11:08:32;14.10;99.90
11656;DHT22;5884;43.618;1.438;2024-01-30T11:11:01;14.10;99.90
11656;DHT22;5884;43.618;1.438;2024-01-30T11:13:29;14.10;99.90
11656;DHT22;5884;43.618;1.438;2024-01-30T11:16:00;14.10;99.90
11656;DHT22;5884;43.618;1.438;2024-01-30T11:18:29;14.30;99.90
11656;DHT22;5884;43.618;1.438;2024-01-30T11:20:57;14.20;99.90
11656;DHT22;5884;43.618;1.438;2024-01-30T11:23:26;14.20;99.90
11656;DHT22;5884;43.618;1.438;2024-01-30T11:25:55;14.20;99.90
11656;DHT22;5884;43.618;1.438;2024-01-30T11:28:24;14.40;99.90
11656;DHT22;5884;43.618;1.438;2024-01-30T11:30:51;14.40;99.90
11656;DHT22;5884;43.618;1.438;2024-01-30T11:33:30;14.40;99.90
11656;DHT22;5884;43.618;1.438;2024-01-30T11:35:58;14.50;99.90
11656;DHT22;5884;43.618;1.438;2024-01-30T11:38:26;14.60;99.90
11656;DHT22;5884;43.618;1.438;2024-01-30T11:40:55;14.70;99.90
11656;DHT22;5884;43.618;1.438;2024-01-30T11:43:24;14.80;99.90
11656;DHT22;5884;43.618;1.438;2024-01-30T11:45:51;14.90;99.90
11656;DHT22;5884;43.618;1.438;2024-01-30T11:48:18;14.90;99.90
11656;DHT22;5884;43.618;1.438;2024-01-30T11:50:46;14.90;99.90
11656;DHT22;5884;43.618;1.438;2024-01-30T11:53:14;14.80;99.90
11656;DHT22;5884;43.618;1.438;2024-01-30T11:55:41;14.80;99.90
11656;DHT22;5884;43.618;1.438;2024-01-30T11:58:08;14.90;99.90
11656;DHT22;5884;43.618;1.438;2024-01-30T12:00:37;15.00;99.90
11656;DHT22;5884;43.618;1.438;2024-01-30T12:03:05;14.90;99.90
11656;DHT22;5884;43.618;1.438;2024-01-30T12:05:32;14.90;99.90
11656;DHT22;5884;43.618;1.438;2024-01-30T12:08:00;14.80;99.90
11656;DHT22;5884;43.618;1.438;2024-01-30T12:10:27;14.80;99.90
11656;DHT22;5884;43.618;1.438;2024-01-30T12:12:55;14.80;99.90
11656;DHT22;5884;43.618;1.438;2024-01-30T12:15:22;14.90;99.90
11656;DHT22;5884;43.618;1.438;2024-01-30T12:17:51;14.90;99.90
11656;DHT22;5884;43.618;1.438;2024-01-30T12:20:20;14.90;99.90
11656;DHT22;5884;43.618;1.438;2024-01-30T12:22:49;15.00;99.90
11656;DHT22;5884;43.618;1.438;2024-01-30T12:25:18;15.10;99.90
11656;DHT22;5884;43.618;1.438;2024-01-30T12:27:49;15.20;99.90
11656;DHT22;5884;43.618;1.438;2024-01-30T12:30:18;15.20;99.90
11656;DHT22;5884;43.618;1.438;2024-01-30T12:32:47;15.30;99.90
11656;DHT22;5884;43.618;1.438;2024-01-30T12:35:18;15.30;99.90
11656;DHT22;5884;43.618;1.438;2024-01-30T12:37:47;15.10;99.90
11656;DHT22;5884;43.618;1.438;2024-01-30T12:40:15;15.20;99.90
11656;DHT22;5884;43.618;1.438;2024-01-30T12:42:46;15.30;99.90
11656;DHT22;5884;43.618;1.438;2024-01-30T12:45:16;15.30;99.90
11656;DHT22;5884;43.618;1.438;2024-01-30T12:47:45;15.20;99.90
11656;DHT22;5884;43.618;1.438;2024-01-30T12:50:13;15.30;99.90
11656;DHT22;5884;43.618;1.438;2024-01-30T12:52:43;15.20;99.90
11656;DHT22;5884;43.618;1.438;2024-01-30T12:55:10;15.10;99.90
11656;DHT22;5884;43.618;1.438;2024-01-30T12:57:38;15.10;99.90
11656;DHT22;5884;43.618;1.438;2024-01-30T13:00:06;15.20;99.90
11656;DHT22;5884;43.618;1.438;2024-01-30T13:02:34;15.20;99.90
11656;DHT22;5884;43.618;1.438;2024-01-30T13:05:02;15.30;99.90
11656;DHT22;5884;43.618;1.438;2024-01-30T13:07:30;15.20;99.90
11656;DHT22;5884;43.618;1.438;2024-01-30T13:09:59;15.20;99.90
11656;DHT22;5884;43.618;1.438;2024-01-30T13:12:29;15.20;99.90
11656;DHT22;5884;43.618;1.438;2024-01-30T13:14:58;15.20;99.90
11656;DHT22;5884;43.618;1.438;2024-01-30T13:17:26;15.30;99.90
11656;DHT22;5884;43.618;1.438;2024-01-30T13:19:54;15.30;99.90
11656;DHT22;5884;43.618;1.438;2024-01-30T13:22:21;15.40;99.90
11656;DHT22;5884;43.618;1.438;2024-01-30T13:24:48;15.40;99.90
11656;DHT22;5884;43.618;1.438;2024-01-30T13:27:17;15.40;99.90
11656;DHT22;5884;43.618;1.438;2024-01-30T13:29:44;15.40;99.90
11656;DHT22;5884;43.618;1.438;2024-01-30T13:32:11;15.30;99.90
11656;DHT22;5884;43.618;1.438;2024-01-30T13:34:38;15.40;99.90
11656;DHT22;5884;43.618;1.438;2024-01-30T13:37:05;15.30;99.90
11656;DHT22;5884;43.618;1.438;2024-01-30T13:39:33;15.20;99.90
11656;DHT22;5884;43.618;1.438;2024-01-30T13:42:00;15.30;99.90
11656;DHT22;5884;43.618;1.438;2024-01-30T13:44:28;15.30;99.90
11656;DHT22;5884;43.618;1.438;2024-01-30T13:46:55;15.30;99.90
11656;DHT22;5884;43.618;1.438;2024-01-30T13:49:22;15.30;99.90
11656;DHT22;5884;43.618;1.438;2024-01-30T13:51:50;15.40;99.90
11656;DHT22;5884;43.618;1.438;2024-01-30T13:54:17;15.40;99.90
11656;DHT22;5884;43.618;1.438;2024-01-30T13:56:44;15.50;99.90
11656;DHT22;5884;43.618;1.438;2024-01-30T13:59:11;15.50;99.90
11656;DHT22;5884;43.618;1.438;2024-01-30T14:01:39;15.50;99.90
11656;DHT22;5884;43.618;1.438;2024-01-30T14:04:06;15.50;99.90
11656;DHT22;5884;43.618;1.438;2024-01-30T14:06:34;15.60;99.90
11656;DHT22;5884;43.618;1.438;2024-01-30T14:09:01;15.70;99.90
11656;DHT22;5884;43.618;1.438;2024-01-30T14:11:29;15.60;99.90
11656;DHT22;5884;43.618;1.438;2024-01-30T14:13:56;15.60;99.90
11656;DHT22;5884;43.618;1.438;2024-01-30T14:16:23;15.60;99.90
11656;DHT22;5884;43.618;1.438;2024-01-30T14:18:52;15.70;99.90
11656;DHT22;5884;43.618;1.438;2024-01-30T14:21:19;15.70;99.90
11656;DHT22;5884;43.618;1.438;2024-01-30T14:23:46;15.60;99.90
11656;DHT22;5884;43.618;1.438;2024-01-30T14:26:14;15.60;99.90
11656;DHT22;5884;43.618;1.438;2024-01-30T14:28:41;15.70;99.90
11656;DHT22;5884;43.618;1.438;2024-01-30T14:31:09;15.70;99.90
11656;DHT22;5884;43.618;1.438;2024-01-30T14:33:37;15.70;99.90
11656;DHT22;5884;43.618;1.438;2024-01-30T14:36:06;15.70;99.90
11656;DHT22;5884;43.618;1.438;2024-01-30T14:38:35;15.60;99.90
11656;DHT22;5884;43.618;1.438;2024-01-30T14:41:02;15.50;99.90
11656;DHT22;5884;43.618;1.438;2024-01-30T14:43:30;15.50;99.90
11656;DHT22;5884;43.618;1.438;2024-01-30T14:45:57;15.50;99.90
11656;DHT22;5884;43.618;1.438;2024-01-30T14:48:24;15.50;99.90
11656;DHT22;5884;43.618;1.438;2024-01-30T14:50:51;15.40;99.90
11656;DHT22;5884;43.618;1.438;2024-01-30T14:53:20;15.30;99.90
11656;DHT22;5884;43.618;1.438;2024-01-30T14:55:47;15.30;99.90
11656;DHT22;5884;43.618;1.438;2024-01-30T14:58:14;15.30;99.90
11656;DHT22;5884;43.618;1.438;2024-01-30T15:00:41;15.40;99.90
11656;DHT22;5884;43.618;1.438;2024-01-30T15:03:09;15.30;99.90
11656;DHT22;5884;43.618;1.438;2024-01-30T15:05:36;15.40;99.90
11656;DHT22;5884;43.618;1.438;2024-01-30T15:08:04;15.30;99.90
11656;DHT22;5884;43.618;1.438;2024-01-30T15:10:33;15.30;99.90
11656;DHT22;5884;43.618;1.438;2024-01-30T15:13:00;15.30;99.90
11656;DHT22;5884;43.618;1.438;2024-01-30T15:15:27;15.30;99.90
11656;DHT22;5884;43.618;1.438;2024-01-30T15:17:56;15.20;99.90
11656;DHT22;5884;43.618;1.438;2024-01-30T15:20:23;15.30;99.90
11656;DHT22;5884;43.618;1.438;2024-01-30T15:22:50;15.30;99.90
11656;DHT22;5884;43.618;1.438;2024-01-30T15:25:17;15.20;99.90
11656;DHT22;5884;43.618;1.438;2024-01-30T15:27:46;15.20;99.90
11656;DHT22;5884;43.618;1.438;2024-01-30T15:30:14;15.20;99.90
11656;DHT22;5884;43.618;1.438;2024-01-30T15:32:41;15.20;99.90
11656;DHT22;5884;43.618;1.438;2024-01-30T15:35:08;15.10;99.90
11656;DHT22;5884;43.618;1.438;2024-01-30T15:37:35;15.10;99.90
11656;DHT22;5884;43.618;1.438;2024-01-30T15:40:03;15.00;99.90
11656;DHT22;5884;43.618;1.438;2024-01-30T15:42:31;15.00;99.90
11656;DHT22;5884;43.618;1.438;2024-01-30T15:45:00;15.00;99.90
11656;DHT22;5884;43.618;1.438;2024-01-30T15:47:27;14.90;99.90
11656;DHT22;5884;43.618;1.438;2024-01-30T15:49:54;14.80;99.90
11656;DHT22;5884;43.618;1.438;2024-01-30T15:52:21;14.80;99.90
11656;DHT22;5884;43.618;1.438;2024-01-30T15:54:48;14.70;99.90
11656;DHT22;5884;43.618;1.438;2024-01-30T15:57:15;14.70;99.90
11656;DHT22;5884;43.618;1.438;2024-01-30T15:59:43;14.70;99.90
11656;DHT22;5884;43.618;1.438;2024-01-30T16:02:11;14.60;99.90
11656;DHT22;5884;43.618;1.438;2024-01-30T16:04:39;14.50;99.90
11656;DHT22;5884;43.618;1.438;2024-01-30T16:07:06;14.50;99.90
11656;DHT22;5884;43.618;1.438;2024-01-30T16:09:33;14.40;99.90
11656;DHT22;5884;43.618;1.438;2024-01-30T16:12:01;14.40;99.90
11656;DHT22;5884;43.618;1.438;2024-01-30T16:14:28;14.30;99.90
11656;DHT22;5884;43.618;1.438;2024-01-30T16:16:55;14.30;99.90
11656;DHT22;5884;43.618;1.438;2024-01-30T16:19:24;14.30;99.90
11656;DHT22;5884;43.618;1.438;2024-01-30T16:21:51;14.20;99.90
11656;DHT22;5884;43.618;1.438;2024-01-30T16:24:18;14.20;99.90
11656;DHT22;5884;43.618;1.438;2024-01-30T16:26:48;14.20;99.90
11656;DHT22;5884;43.618;1.438;2024-01-30T16:29:15;14.10;99.90
11656;DHT22;5884;43.618;1.438;2024-01-30T16:31:42;14.10;99.90
11656;DHT22;5884;43.618;1.438;2024-01-30T16:34:09;14.00;99.90
11656;DHT22;5884;43.618;1.438;2024-01-30T16:36:38;13.90;99.90
11656;DHT22;5884;43.618;1.438;2024-01-30T16:39:06;13.90;99.90
11656;DHT22;5884;43.618;1.438;2024-01-30T16:41:33;13.80;99.90
11656;DHT22;5884;43.618;1.438;2024-01-30T16:44:00;13.70;99.90
11656;DHT22;5884;43.618;1.438;2024-01-30T16:46:27;13.60;99.90
11656;DHT22;5884;43.618;1.438;2024-01-30T16:48:54;13.50;99.90
11656;DHT22;5884;43.618;1.438;2024-01-30T16:51:21;13.50;99.90
11656;DHT22;5884;43.618;1.438;2024-01-30T16:53:50;13.40;99.90
11656;DHT22;5884;43.618;1.438;2024-01-30T16:56:17;13.30;99.90
11656;DHT22;5884;43.618;1.438;2024-01-30T16:58:44;13.30;99.90
11656;DHT22;5884;43.618;1.438;2024-01-30T17:01:11;13.20;99.90
11656;DHT22;5884;43.618;1.438;2024-01-30T17:03:39;13.20;99.90
11656;DHT22;5884;43.618;1.438;2024-01-30T17:06:10;13.10;99.90
11656;DHT22;5884;43.618;1.438;2024-01-30T17:08:37;13.10;99.90
11656;DHT22;5884;43.618;1.438;2024-01-30T17:11:06;12.90;99.90
11656;DHT22;5884;43.618;1.438;2024-01-30T17:13:34;12.90;99.90
11656;DHT22;5884;43.618;1.438;2024-01-30T17:16:02;12.90;99.90
11656;DHT22;5884;43.618;1.438;2024-01-30T17:18:30;12.80;99.90
11656;DHT22;5884;43.618;1.438;2024-01-30T17:20:57;12.70;99.90
11656;DHT22;5884;43.618;1.438;2024-01-30T17:23:24;12.70;99.90
11656;DHT22;5884;43.618;1.438;2024-01-30T17:25:52;12.60;99.90
11656;DHT22;5884;43.618;1.438;2024-01-30T17:28:21;12.60;99.90
11656;DHT22;5884;43.618;1.438;2024-01-30T17:30:48;12.50;99.90
11656;DHT22;5884;43.618;1.438;2024-01-30T17:33:15;12.50;99.90
11656;DHT22;5884;43.618;1.438;2024-01-30T17:35:42;12.50;99.90
11656;DHT22;5884;43.618;1.438;2024-01-30T17:38:09;12.40;99.90
11656;DHT22;5884;43.618;1.438;2024-01-30T17:40:36;12.40;99.90
11656;DHT22;5884;43.618;1.438;2024-01-30T17:43:03;12.30;99.90
11656;DHT22;5884;43.618;1.438;2024-01-30T17:45:39;12.30;99.90
11656;DHT22;5884;43.618;1.438;2024-01-30T17:48:06;12.30;99.90
11656;DHT22;5884;43.618;1.438;2024-01-30T17:50:34;12.20;99.90
11656;DHT22;5884;43.618;1.438;2024-01-30T17:53:01;12.10;99.90
11656;DHT22;5884;43.618;1.438;2024-01-30T17:55:28;12.10;99.90
11656;DHT22;5884;43.618;1.438;2024-01-30T17:57:55;12.10;99.90
11656;DHT22;5884;43.618;1.438;2024-01-30T18:00:22;12.00;99.90
11656;DHT22;5884;43.618;1.438;2024-01-30T18:02:52;11.90;99.90
11656;DHT22;5884;43.618;1.438;2024-01-30T18:05:21;12.00;99.90
11656;DHT22;5884;43.618;1.438;2024-01-30T18:07:48;12.00;99.90
11656;DHT22;5884;43.618;1.438;2024-01-30T18:10:15;11.90;99.90
11656;DHT22;5884;43.618;1.438;2024-01-30T18:12:44;11.90;99.90
11656;DHT22;5884;43.618;1.438;2024-01-30T18:15:11;11.90;99.90
11656;DHT22;5884;43.618;1.438;2024-01-30T18:17:39;11.80;99.90
11656;DHT22;5884;43.618;1.438;2024-01-30T18:20:08;11.80;99.90
11656;DHT22;5884;43.618;1.438;2024-01-30T18:22:35;11.70;99.90
11656;DHT22;5884;43.618;1.438;2024-01-30T18:25:06;11.70;99.90
11656;DHT22;5884;43.618;1.438;2024-01-30T18:27:34;11.70;99.90
11656;DHT22;5884;43.618;1.438;2024-01-30T18:30:02;11.70;99.90
11656;DHT22;5884;43.618;1.438;2024-01-30T18:32:30;11.60;99.90
11656;DHT22;5884;43.618;1.438;2024-01-30T18:34:57;11.60;99.90
11656;DHT22;5884;43.618;1.438;2024-01-30T18:37:25;11.60;99.90
11656;DHT22;5884;43.618;1.438;2024-01-30T18:39:52;11.60;99.90
11656;DHT22;5884;43.618;1.438;2024-01-30T18:42:19;11.60;99.90
11656;DHT22;5884;43.618;1.438;2024-01-30T18:44:47;11.60;99.90
11656;DHT22;5884;43.618;1.438;2024-01-30T18:47:14;11.50;99.90
11656;DHT22;5884;43.618;1.438;2024-01-30T18:49:41;11.50;99.90
11656;DHT22;5884;43.618;1.438;2024-01-30T18:52:08;11.50;99.90
11656;DHT22;5884;43.618;1.438;2024-01-30T18:54:36;11.50;99.90
11656;DHT22;5884;43.618;1.438;2024-01-30T18:57:03;11.50;99.90
11656;DHT22;5884;43.618;1.438;2024-01-30T18:59:31;11.40;99.90
11656;DHT22;5884;43.618;1.438;2024-01-30T19:01:58;11.40;99.90
11656;DHT22;5884;43.618;1.438;2024-01-30T19:04:25;11.40;99.90
11656;DHT22;5884;43.618;1.438;2024-01-30T19:06:52;11.30;99.90
11656;DHT22;5884;43.618;1.438;2024-01-30T19:09:20;11.40;99.90
11656;DHT22;5884;43.618;1.438;2024-01-30T19:11:50;11.40;99.90
11656;DHT22;5884;43.618;1.438;2024-01-30T19:14:17;11.30;99.90
11656;DHT22;5884;43.618;1.438;2024-01-30T19:16:45;11.30;99.90
11656;DHT22;5884;43.618;1.438;2024-01-30T19:19:12;11.30;99.90
11656;DHT22;5884;43.618;1.438;2024-01-30T19:21:39;11.20;99.90
11656;DHT22;5884;43.618;1.438;2024-01-30T19:24:07;11.20;99.90
11656;DHT22;5884;43.618;1.438;2024-01-30T19:26:34;11.20;99.90
11656;DHT22;5884;43.618;1.438;2024-01-30T19:29:03;11.20;99.90
11656;DHT22;5884;43.618;1.438;2024-01-30T19:31:31;11.20;99.90
11656;DHT22;5884;43.618;1.438;2024-01-30T19:33:58;11.20;99.90
11656;DHT22;5884;43.618;1.438;2024-01-30T19:36:25;11.10;99.90
11656;DHT22;5884;43.618;1.438;2024-01-30T19:38:53;11.10;99.90
11656;DHT22;5884;43.618;1.438;2024-01-30T19:41:20;11.10;99.90
11656;DHT22;5884;43.618;1.438;2024-01-30T19:43:47;11.10;99.90
11656;DHT22;5884;43.618;1.438;2024-01-30T19:46:15;11.10;99.90
11656;DHT22;5884;43.618;1.438;2024-01-30T19:48:42;11.00;99.90
11656;DHT22;5884;43.618;1.438;2024-01-30T19:51:10;11.00;99.90
11656;DHT22;5884;43.618;1.438;2024-01-30T19:53:37;11.00;99.90
11656;DHT22;5884;43.618;1.438;2024-01-30T19:56:05;11.00;99.90
11656;DHT22;5884;43.618;1.438;2024-01-30T19:58:32;11.00;99.90
11656;DHT22;5884;43.618;1.438;2024-01-30T20:00:59;10.90;99.90
11656;DHT22;5884;43.618;1.438;2024-01-30T20:03:28;10.90;99.90
11656;DHT22;5884;43.618;1.438;2024-01-30T20:05:55;10.90;99.90
11656;DHT22;5884;43.618;1.438;2024-01-30T20:08:22;10.90;99.90
11656;DHT22;5884;43.618;1.438;2024-01-30T20:10:49;10.80;99.90
11656;DHT22;5884;43.618;1.438;2024-01-30T20:13:16;10.80;99.90
11656;DHT22;5884;43.618;1.438;2024-01-30T20:15:43;10.80;99.90
11656;DHT22;5884;43.618;1.438;2024-01-30T20:18:10;10.80;99.90
11656;DHT22;5884;43.618;1.438;2024-01-30T20:20:39;10.80;99.90
11656;DHT22;5884;43.618;1.438;2024-01-30T20:23:08;10.80;99.90
11656;DHT22;5884;43.618;1.438;2024-01-30T20:25:35;10.70;99.90
11656;DHT22;5884;43.618;1.438;2024-01-30T20:28:02;10.70;99.90
11656;DHT22;5884;43.618;1.438;2024-01-30T20:30:30;10.70;99.90
11656;DHT22;5884;43.618;1.438;2024-01-30T20:32:57;10.70;99.90
11656;DHT22;5884;43.618;1.438;2024-01-30T20:35:24;10.70;99.90
11656;DHT22;5884;43.618;1.438;2024-01-30T20:37:53;10.60;99.90
11656;DHT22;5884;43.618;1.438;2024-01-30T20:40:20;10.60;99.90
11656;DHT22;5884;43.618;1.438;2024-01-30T20:42:47;10.60;99.90
11656;DHT22;5884;43.618;1.438;2024-01-30T20:45:14;10.60;99.90
11656;DHT22;5884;43.618;1.438;2024-01-30T20:47:41;10.50;99.90
11656;DHT22;5884;43.618;1.438;2024-01-30T20:50:09;10.60;99.90
11656;DHT22;5884;43.618;1.438;2024-01-30T20:52:36;10.60;99.90
11656;DHT22;5884;43.618;1.438;2024-01-30T20:55:05;10.60;99.90
11656;DHT22;5884;43.618;1.438;2024-01-30T20:57:33;10.60;99.90
11656;DHT22;5884;43.618;1.438;2024-01-30T21:00:01;10.50;99.90
11656;DHT22;5884;43.618;1.438;2024-01-30T21:02:30;10.50;99.90
11656;DHT22;5884;43.618;1.438;2024-01-30T21:04:57;10.50;99.90
11656;DHT22;5884;43.618;1.438;2024-01-30T21:07:23;10.50;99.90
11656;DHT22;5884;43.618;1.438;2024-01-30T21:09:50;10.50;99.90
11656;DHT22;5884;43.618;1.438;2024-01-30T21:12:19;10.50;99.90
11656;DHT22;5884;43.618;1.438;2024-01-30T21:14:46;10.50;99.90
11656;DHT22;5884;43.618;1.438;2024-01-30T21:17:16;10.40;99.90
11656;DHT22;5884;43.618;1.438;2024-01-30T21:19:43;10.50;99.90
11656;DHT22;5884;43.618;1.438;2024-01-30T21:22:10;10.40;99.90
11656;DHT22;5884;43.618;1.438;2024-01-30T21:24:38;10.40;99.90
11656;DHT22;5884;43.618;1.438;2024-01-30T21:27:05;10.40;99.90
11656;DHT22;5884;43.618;1.438;2024-01-30T21:29:33;10.30;99.90
11656;DHT22;5884;43.618;1.438;2024-01-30T21:32:00;10.40;99.90
11656;DHT22;5884;43.618;1.438;2024-01-30T21:34:28;10.30;99.90
11656;DHT22;5884;43.618;1.438;2024-01-30T21:36:55;10.30;99.90